createdAt,value
2022-12-01T00:04:05.080Z,1.00
2022-12-01T00:06:35.972Z,1.00
2022-12-01T00:11:37.207Z,2.00
2022-12-01T00:24:06.921Z,2.50
2022-12-01T00:26:36.863Z,2.50
2022-12-01T00:29:05.203Z,2.50
2022-12-01T00:34:09.683Z,0.50
2022-12-01T00:36:35.376Z,0.50
2022-12-01T00:44:05.088Z,0.70
2022-12-01T00:54:05.379Z,1.60
2022-12-01T00:56:35.075Z,1.60
2022-12-01T00:59:05.182Z,1.60
2022-12-01T01:01:35.357Z,0.40
2022-12-01T01:04:05.698Z,0.40
2022-12-01T01:06:35.171Z,0.40
2022-12-01T01:09:05.067Z,0.40
2022-12-01T01:11:35.304Z,5.20
2022-12-01T01:16:35.471Z,5.20
2022-12-01T01:19:05.291Z,5.20
2022-12-01T01:21:35.391Z,1.50
2022-12-01T01:24:05.548Z,1.50
2022-12-01T01:26:36.320Z,1.50
2022-12-01T01:29:06.740Z,1.50
2022-12-01T01:31:35.692Z,1.60
2022-12-01T01:36:35.178Z,1.60
2022-12-01T01:41:35.246Z,2.50
2022-12-01T01:44:24.999Z,2.50
2022-12-01T01:46:35.787Z,2.50
2022-12-01T01:49:07.736Z,1.10
2022-12-01T01:51:44.242Z,1.10
2022-12-01T01:54:07.673Z,1.10
2022-12-01T01:56:36.192Z,1.10
2022-12-01T01:59:05.288Z,1.00
2022-12-01T02:01:35.368Z,1.00
2022-12-01T02:04:06.467Z,1.00
2022-12-01T02:06:35.219Z,1.00
2022-12-01T02:11:50.389Z,1.30
2022-12-01T02:24:24.272Z,1.50
2022-12-01T02:31:40.870Z,4.30
2022-12-01T02:34:12.761Z,4.30
2022-12-01T02:36:42.659Z,4.30
2022-12-01T02:49:11.303Z,2.30
2022-12-01T02:51:38.889Z,2.30
2022-12-01T02:59:08.978Z,4.40
2022-12-01T03:04:24.621Z,4.40
2022-12-01T03:11:43.130Z,1.90
2022-12-01T03:16:45.700Z,1.90
2022-12-01T03:19:10.309Z,1.30
2022-12-01T03:21:39.730Z,1.30
2022-12-01T03:24:09.433Z,1.30
2022-12-01T03:26:37.070Z,1.30
2022-12-01T03:29:09.478Z,1.40
2022-12-01T03:36:39.603Z,1.40
2022-12-01T03:39:10.185Z,1.10
2022-12-01T03:41:41.702Z,1.10
2022-12-01T03:49:07.886Z,1.70
2022-12-01T03:54:13.718Z,1.70
2022-12-01T04:14:05.481Z,4.10
2022-12-01T04:26:37.858Z,6.70
2022-12-01T04:29:07.220Z,6.30
2022-12-01T04:39:06.916Z,5.70
2022-12-01T04:41:35.112Z,5.70
2022-12-01T04:44:05.162Z,5.70
2022-12-01T04:49:05.501Z,0.50
2022-12-01T04:59:06.233Z,0.50
2022-12-01T05:06:35.243Z,0.50
2022-12-01T05:09:06.009Z,5.30
2022-12-01T05:11:36.364Z,5.30
2022-12-01T05:14:05.988Z,5.30
2022-12-01T05:16:35.155Z,5.30
2022-12-01T05:19:15.583Z,0.80
2022-12-01T05:29:05.866Z,4.00
2022-12-01T05:34:05.635Z,4.00
2022-12-01T05:39:05.640Z,1.20
2022-12-01T05:44:05.355Z,1.20
2022-12-01T05:46:35.492Z,1.20
2022-12-01T05:51:35.389Z,0.90
2022-12-01T05:54:05.254Z,0.90
2022-12-01T05:56:35.589Z,0.90
2022-12-01T06:01:35.311Z,1.80
2022-12-01T06:09:05.475Z,2.40
2022-12-01T06:14:05.188Z,2.40
2022-12-01T06:16:35.307Z,2.40
2022-12-01T06:31:35.508Z,2.50
2022-12-01T06:39:05.761Z,3.40
2022-12-01T06:41:35.359Z,3.40
2022-12-01T06:46:35.866Z,3.40
2022-12-01T06:49:05.194Z,0.10
2022-12-01T06:51:35.181Z,0.10
2022-12-01T06:54:05.762Z,0.10
2022-12-01T06:56:35.169Z,0.10
2022-12-01T06:59:05.572Z,1.80
2022-12-01T07:01:35.434Z,1.80
2022-12-01T07:04:05.207Z,1.80
2022-12-01T07:06:35.271Z,1.80
2022-12-01T07:09:05.204Z,1.80
2022-12-01T07:11:35.988Z,1.80
2022-12-01T07:14:05.471Z,1.80
2022-12-01T07:16:35.231Z,1.80
2022-12-01T07:19:05.215Z,3.60
2022-12-01T07:21:35.200Z,3.60
2022-12-01T07:24:06.127Z,3.60
2022-12-01T07:26:35.229Z,3.60
2022-12-01T07:29:05.287Z,0.40
2022-12-01T07:31:36.311Z,0.40
2022-12-01T07:34:05.627Z,0.40
2022-12-01T07:36:35.359Z,0.40
2022-12-01T07:39:06.783Z,1.60
2022-12-01T07:41:35.603Z,1.60
2022-12-01T07:44:05.572Z,1.60
2022-12-01T07:46:35.423Z,1.60
2022-12-01T07:49:06.964Z,1.90
2022-12-01T07:51:35.351Z,1.90
2022-12-01T07:54:06.771Z,1.90
2022-12-01T07:56:35.216Z,1.90
2022-12-01T07:59:05.446Z,0.40
2022-12-01T08:01:35.949Z,0.40
2022-12-01T08:04:06.044Z,0.40
2022-12-01T08:06:35.307Z,0.40
2022-12-01T08:09:05.486Z,1.20
2022-12-01T08:11:35.272Z,1.20
2022-12-01T08:14:05.538Z,1.20
2022-12-01T08:16:35.311Z,1.20
2022-12-01T08:19:05.214Z,0.80
2022-12-01T08:21:36.573Z,0.80
2022-12-01T08:24:06.432Z,0.80
2022-12-01T08:31:37.168Z,0.80
2022-12-01T08:36:35.711Z,0.80
2022-12-01T08:39:07.188Z,0.40
2022-12-01T08:41:35.217Z,0.40
2022-12-01T08:44:05.391Z,0.40
2022-12-01T08:46:36.037Z,0.40
2022-12-01T08:51:35.562Z,0.50
2022-12-01T08:56:38.335Z,0.50
2022-12-01T09:01:45.970Z,0.70
2022-12-01T09:04:06.853Z,0.70
2022-12-01T09:09:05.899Z,0.70
2022-12-01T09:11:35.840Z,0.70
2022-12-01T09:14:05.671Z,0.70
2022-12-01T09:16:35.720Z,0.70
2022-12-01T09:19:05.714Z,1.60
2022-12-01T09:21:36.541Z,1.60
2022-12-01T09:24:06.842Z,1.60
2022-12-01T09:26:35.344Z,1.60
2022-12-01T09:29:07.744Z,0.70
2022-12-01T09:31:36.931Z,0.70
2022-12-01T09:39:06.701Z,0.70
2022-12-01T09:41:39.108Z,0.70
2022-12-01T09:44:14.375Z,0.70
2022-12-01T09:46:47.351Z,0.70
2022-12-01T10:04:11.157Z,0.30
2022-12-01T10:06:38.744Z,0.30
2022-12-01T10:11:39.595Z,1.20
2022-12-01T10:14:15.046Z,1.20
2022-12-01T10:16:42.395Z,1.20
2022-12-01T10:19:12.487Z,0.10
2022-12-01T10:21:50.678Z,0.10
2022-12-01T10:24:23.502Z,0.10
2022-12-01T10:26:48.890Z,0.10
2022-12-01T10:29:11.513Z,0.10
2022-12-01T10:31:46.972Z,0.10
2022-12-01T10:34:10.184Z,0.10
2022-12-01T10:36:35.575Z,0.10
2022-12-01T10:39:06.349Z,1.70
2022-12-01T10:41:38.284Z,1.70
2022-12-01T10:44:06.537Z,1.70
2022-12-01T10:46:42.791Z,1.70
2022-12-01T10:49:08.247Z,1.30
2022-12-01T10:51:46.387Z,1.30
2022-12-01T10:54:07.298Z,1.30
2022-12-01T10:56:39.810Z,1.30
2022-12-01T10:59:22.233Z,0.90
2022-12-01T11:01:35.523Z,0.90
2022-12-01T11:04:17.097Z,0.90
2022-12-01T11:06:36.948Z,0.90
2022-12-01T11:09:15.593Z,0.10
2022-12-01T11:11:37.948Z,0.10
2022-12-01T11:14:14.889Z,0.10
2022-12-01T11:16:44.600Z,0.10
2022-12-01T11:19:09.355Z,0.20
2022-12-01T11:21:45.825Z,0.20
2022-12-01T11:24:24.243Z,0.20
2022-12-01T11:26:35.430Z,0.20
2022-12-01T11:29:16.840Z,0.80
2022-12-01T11:31:38.733Z,0.80
2022-12-01T11:34:14.114Z,0.80
2022-12-01T11:36:41.628Z,0.80
2022-12-01T11:39:05.500Z,0.40
2022-12-01T11:41:38.408Z,0.40
2022-12-01T11:46:46.484Z,0.40
2022-12-01T11:54:13.904Z,0.70
2022-12-01T11:56:35.591Z,0.70
2022-12-01T11:59:09.928Z,0.10
2022-12-01T12:01:49.044Z,0.10
2022-12-01T12:04:22.005Z,0.10
2022-12-01T12:06:44.946Z,0.10
2022-12-01T12:09:23.563Z,1.90
2022-12-01T12:11:44.063Z,1.90
2022-12-01T12:14:22.690Z,1.90
2022-12-01T12:16:49.057Z,1.90
2022-12-01T12:21:45.788Z,2.10
2022-12-01T12:24:22.711Z,2.10
2022-12-01T12:26:41.146Z,2.10
2022-12-01T12:29:18.509Z,1.90
2022-12-01T12:31:44.737Z,1.90
2022-12-01T12:34:21.713Z,1.90
2022-12-01T12:36:45.403Z,1.90
2022-12-01T12:39:21.279Z,0.40
2022-12-01T12:45:03.540Z,0.40
2022-12-01T12:49:22.486Z,0.60
2022-12-01T12:51:40.490Z,0.60
2022-12-01T12:54:17.889Z,0.60
2022-12-01T12:56:36.484Z,0.60
2022-12-01T12:59:12.745Z,0.40
2022-12-01T13:01:39.313Z,0.40
2022-12-01T13:04:11.311Z,0.40
2022-12-01T13:06:39.307Z,0.40
2022-12-01T13:09:12.553Z,0.20
2022-12-01T13:11:43.561Z,0.20
2022-12-01T13:14:12.381Z,0.20
2022-12-01T13:16:40.696Z,0.20
2022-12-01T13:19:13.280Z,0.20
2022-12-01T14:29:30.203Z,0.40
2022-12-01T14:32:01.318Z,0.40
2022-12-01T14:34:18.633Z,0.40
2022-12-01T14:36:45.879Z,0.40
2022-12-01T14:39:15.286Z,0.50
2022-12-01T14:41:46.076Z,0.50
2022-12-01T14:44:20.351Z,0.50
2022-12-01T14:46:48.077Z,0.50
2022-12-01T14:49:16.985Z,0.20
2022-12-01T14:51:45.142Z,0.20
2022-12-01T14:54:19.729Z,0.20
2022-12-01T14:56:42.905Z,0.20
2022-12-01T14:59:15.043Z,0.40
2022-12-01T15:01:42.667Z,0.40
2022-12-01T15:04:11.564Z,0.40
2022-12-01T15:06:41.878Z,0.40
2022-12-01T15:09:33.559Z,0.60
2022-12-01T15:11:51.654Z,0.60
2022-12-01T15:14:22.720Z,0.60
2022-12-01T15:16:42.431Z,0.60
2022-12-01T15:19:23.440Z,0.80
2022-12-01T15:21:41.567Z,0.80
2022-12-01T15:24:21.306Z,0.80
2022-12-01T15:26:48.343Z,0.80
2022-12-01T15:29:15.125Z,0.50
2022-12-01T15:31:44.074Z,0.50
2022-12-01T15:34:15.837Z,0.50
2022-12-01T15:36:42.264Z,0.50
2022-12-01T15:39:15.304Z,1.10
2022-12-01T15:41:45.675Z,1.10
2022-12-01T15:44:21.978Z,1.10
2022-12-01T15:46:42.876Z,1.10
2022-12-01T15:49:18.751Z,0.60
2022-12-01T15:51:41.567Z,0.60
2022-12-01T15:54:18.491Z,0.60
2022-12-01T15:56:41.659Z,0.60
2022-12-01T15:59:24.563Z,1.20
2022-12-01T16:01:43.455Z,1.20
2022-12-01T16:04:18.225Z,1.20
2022-12-01T16:06:42.009Z,1.20
2022-12-01T16:09:21.154Z,0.50
2022-12-01T16:12:01.357Z,0.50
2022-12-01T16:14:21.888Z,0.50
2022-12-01T16:16:44.440Z,0.50
2022-12-01T16:19:23.422Z,1.40
2022-12-01T16:21:45.532Z,1.40
2022-12-01T16:24:14.690Z,1.40
2022-12-01T16:26:46.872Z,1.40
2022-12-01T16:29:18.531Z,1.40
2022-12-01T16:31:58.763Z,1.40
2022-12-01T16:34:43.990Z,1.40
2022-12-01T16:36:41.601Z,1.40
2022-12-01T16:39:12.242Z,1.60
2022-12-01T16:41:43.739Z,1.60
2022-12-01T16:44:28.172Z,1.60
2022-12-01T16:46:42.210Z,1.60
2022-12-01T16:49:11.715Z,0.80
2022-12-01T16:51:55.474Z,0.80
2022-12-01T16:54:11.570Z,0.80
2022-12-01T16:56:41.632Z,0.80
2022-12-01T16:59:11.574Z,2.10
2022-12-01T17:01:41.831Z,2.10
2022-12-01T17:04:11.922Z,2.10
2022-12-01T17:06:41.599Z,2.10
2022-12-01T17:09:11.947Z,2.00
2022-12-01T17:11:41.618Z,2.00
2022-12-01T17:14:12.088Z,2.00
2022-12-01T17:19:11.642Z,1.80
2022-12-01T17:21:41.592Z,1.80
2022-12-01T17:24:11.590Z,1.80
2022-12-01T17:26:41.974Z,1.80
2022-12-01T17:31:42.657Z,1.40
2022-12-01T17:34:11.545Z,1.40
2022-12-01T17:36:41.607Z,1.40
2022-12-01T17:39:11.880Z,1.10
2022-12-01T17:44:11.588Z,1.10
2022-12-01T17:49:12.465Z,2.90
2022-12-01T17:51:41.695Z,2.90
2022-12-01T17:54:11.553Z,2.90
2022-12-01T17:56:42.024Z,2.90
2022-12-01T17:59:11.754Z,3.10
2022-12-01T18:04:11.909Z,3.10
2022-12-01T18:06:41.945Z,3.10
2022-12-01T18:09:11.626Z,2.50
2022-12-01T18:14:11.646Z,2.50
2022-12-01T18:19:11.870Z,0.90
2022-12-01T18:21:41.731Z,0.90
2022-12-01T18:24:11.609Z,0.90
2022-12-01T18:26:42.025Z,0.90
2022-12-01T18:29:15.166Z,0.60
2022-12-01T18:31:42.497Z,0.60
2022-12-01T18:34:11.645Z,0.60
2022-12-01T18:36:41.675Z,0.60
2022-12-01T18:39:12.186Z,0.80
2022-12-01T18:46:41.963Z,0.80
2022-12-01T18:49:12.320Z,0.60
2022-12-01T18:51:41.708Z,0.60
2022-12-01T18:54:13.713Z,0.60
2022-12-01T18:56:42.962Z,0.60
2022-12-01T18:59:12.546Z,1.10
2022-12-01T19:01:43.928Z,1.10
2022-12-01T19:04:13.536Z,1.10
2022-12-01T19:06:42.566Z,1.10
2022-12-01T19:09:14.789Z,9.30
2022-12-01T19:11:42.442Z,9.30
2022-12-01T19:14:14.733Z,9.30
2022-12-01T19:16:42.165Z,9.30
2022-12-01T19:21:47.150Z,2.90
2022-12-01T19:24:12.024Z,2.90
2022-12-01T19:26:42.010Z,2.90
2022-12-01T19:29:11.806Z,3.00
2022-12-01T19:31:41.701Z,3.00
2022-12-01T19:34:11.852Z,3.00
2022-12-01T19:36:41.768Z,3.00
2022-12-01T19:39:11.798Z,1.00
2022-12-01T19:41:41.600Z,1.00
2022-12-01T19:44:11.813Z,1.00
2022-12-01T19:46:41.971Z,1.00
2022-12-01T19:49:11.611Z,1.10
2022-12-01T19:51:41.898Z,1.10
2022-12-01T19:54:13.970Z,1.10
2022-12-01T19:56:42.197Z,1.10
2022-12-01T19:59:13.877Z,0.40
2022-12-01T20:01:41.852Z,0.40
2022-12-01T20:04:15.819Z,0.40
2022-12-01T20:06:41.756Z,0.40
2022-12-01T20:09:11.965Z,1.30
2022-12-01T20:16:42.011Z,1.30
2022-12-01T20:19:11.889Z,1.20
2022-12-01T20:21:42.536Z,1.20
2022-12-01T20:24:14.159Z,1.20
2022-12-01T20:26:45.066Z,1.20
2022-12-01T20:29:14.002Z,3.80
2022-12-01T20:31:43.277Z,3.80
2022-12-01T20:34:14.206Z,3.80
2022-12-01T20:36:41.979Z,3.80
2022-12-01T20:39:12.630Z,3.40
2022-12-01T20:41:42.860Z,3.40
2022-12-01T20:44:13.062Z,3.40
2022-12-01T20:46:44.248Z,3.40
2022-12-01T20:49:13.906Z,1.40
2022-12-01T20:51:41.813Z,1.40
2022-12-01T20:54:28.309Z,1.40
2022-12-01T20:56:41.660Z,1.40
2022-12-01T21:09:13.817Z,0.70
2022-12-01T21:11:54.679Z,0.70
2022-12-01T21:14:16.864Z,0.70
2022-12-01T21:19:16.981Z,7.10
2022-12-01T21:21:41.917Z,7.10
2022-12-01T21:26:46.548Z,7.10
2022-12-01T21:31:41.875Z,0.80
2022-12-01T21:36:41.748Z,0.80
2022-12-01T21:39:13.942Z,3.10
2022-12-01T21:44:14.418Z,3.10
2022-12-01T21:46:42.308Z,3.10
2022-12-01T21:49:16.732Z,1.10
2022-12-01T21:51:41.679Z,1.10
2022-12-01T21:54:15.410Z,1.10
2022-12-01T21:56:42.323Z,1.10
2022-12-01T21:59:17.967Z,0.10
2022-12-01T22:01:41.692Z,0.10
2022-12-01T22:04:16.059Z,0.10
2022-12-01T22:06:45.965Z,0.10
2022-12-01T22:11:46.228Z,3.30
2022-12-01T22:14:15.145Z,3.30
2022-12-01T22:16:44.302Z,3.30
2022-12-01T22:19:24.520Z,1.90
2022-12-01T22:21:44.180Z,1.90
2022-12-01T22:26:47.046Z,1.90
2022-12-01T22:39:25.058Z,1.50
2022-12-01T22:41:41.637Z,1.50
2022-12-01T22:44:12.167Z,1.50
2022-12-01T22:46:41.845Z,1.50
2022-12-01T22:49:19.748Z,1.10
2022-12-01T22:54:24.300Z,1.10
2022-12-01T22:59:14.933Z,0.30
2022-12-01T23:04:19.330Z,0.30
2022-12-01T23:06:52.164Z,1.40
2022-12-01T23:14:14.744Z,1.40
2022-12-01T23:16:41.716Z,1.40
2022-12-01T23:19:11.998Z,2.10
2022-12-01T23:21:41.753Z,2.10
2022-12-01T23:24:16.832Z,2.10
2022-12-01T23:26:44.249Z,1.20
2022-12-01T23:29:11.875Z,1.20
2022-12-01T23:31:42.619Z,1.20
2022-12-01T23:34:14.348Z,1.20
2022-12-01T23:41:44.233Z,0.70
2022-12-01T23:44:19.690Z,0.70
2022-12-01T23:49:14.945Z,0.20
2022-12-01T23:51:45.874Z,0.20
2022-12-01T23:54:17.316Z,0.20
2022-12-01T23:59:13.216Z,0.30
